Scottville, Illinois
Current Conditions -  °F | °C
As of 6:15 AM on Sunday 25 Jan 2015 (Local Time) from KIJX Reporting Station
Moderate Rain Moderate Rain  
Wind Chill: 41°   Ceiling: 4100
Heat Index: 41°   Visibility: 7mi
Dew Point: 39°   Wind: 0mph
Humidity: 92%   Direction: NA
Pressure: 29.58"   Gusts: NA
Location:  39.48°N, 90.1°W
Report Text: KIJX 251215Z AUTO 00000KT 7SM RA OVC041 05/04 A2958 RMK AO2 P0002 T00500038
Loading
Personal Weather Stations






























Interactive Weather Map New forecast layout! Learn more

10-Day Weather Forecast

Advertisements
Track Severe Weather on mobile